Juazeirinho, Brazil
Current Conditions -  °F | °C
As of 7:00 PM on Tuesday 27 Jan 2015 (Local Time) from SBJU Reporting Station
Few Clouds Few Clouds  
Wind Chill: 93°   Ceiling: Unl
Heat Index: 94°   Visibility: 6mi
Dew Point: 63°   Wind: 3mph
Humidity: 36%   Direction: 50°NE
Pressure: 29.91"   Gusts: NA
Location:  8.82°S, 38.69°W
Report Text: SBJU 272200Z 05003KT 9999 FEW022 34/17 Q1013
Loading
Personal Weather Stations






























Interactive Weather Map New forecast layout! Learn more

10-Day Weather Forecast

Advertisements
Track Severe Weather on mobile